This is the latest recevied weather packets stored in our database for station/object SP6PWT-13. If no packets are shown the sender has not sent any weather packets the latest 10 day(s).
| Time | Temp. | Humidity | Pressure | Rain* | Wind** | Luminosity | Snow |
|---|---|---|---|---|---|---|---|
| 1777519089 | 2.22° C | 68% | 1015 hPa | 0 mm | - | 1 W/m² | - |
| 1777518789 | 2.22° C | 70% | 1015.2 hPa | 0 mm | - | 0 W/m² | - |
| 1777518478 | 1.67° C | 71% | 1015.1 hPa | 0 mm | - | 0 W/m² | - |
| 1777518178 | 1.67° C | 71% | 1015 hPa | 0 mm | - | 0 W/m² | - |
| 1777517878 | 1.67° C | 71% | 1015.1 hPa | 0 mm | - | 0 W/m² | - |
| 1777517567 | 1.67° C | 72% | 1015.1 hPa | 0 mm | - | 0 W/m² | - |
| 1777517267 | 1.67° C | 73% | 1015.1 hPa | 0 mm | - | 0 W/m² | - |
| 1777516967 | 1.67° C | 72% | 1015.1 hPa | 0 mm | - | 0 W/m² | - |
| 1777516656 | 1.67° C | 70% | 1015.1 hPa | 0 mm | - | 0 W/m² | - |
| 1777516356 | 2.22° C | 70% | 1014.9 hPa | 0 mm | - | 0 W/m² | - |
| 1777516055 | 2.22° C | 70% | 1015 hPa | 0 mm | - | 0 W/m² | - |
| 1777515755 | 2.22° C | 70% | 1015 hPa | 0 mm | - | 0 W/m² | - |
| 1777515454 | 2.22° C | 70% | 1014.9 hPa | 0 mm | - | 0 W/m² | - |
| 1777515153 | 2.22° C | 70% | 1015 hPa | 0 mm | - | 0 W/m² | - |
| 1777514853 | 2.22° C | 71% | 1014.8 hPa | 0 mm | - | 0 W/m² | - |
| 1777514552 | 2.78° C | 71% | 1014.8 hPa | 0 mm | - | 0 W/m² | - |
| 1777514252 | 2.22° C | 73% | 1014.8 hPa | 0 mm | - | 0 W/m² | - |
| 1777513951 | 2.22° C | 74% | 1014.8 hPa | 0 mm | - | 0 W/m² | - |
| 1777513651 | 2.78° C | 72% | 1014.8 hPa | 0 mm | - | 0 W/m² | - |
| 1777513350 | 2.22° C | 73% | 1014.6 hPa | 0 mm | - | 0 W/m² | - |
| 1777513050 | 2.78° C | 71% | 1014.4 hPa | 0 mm | - | 0 W/m² | - |
| 1777512749 | 2.78° C | 71% | 1014.5 hPa | 0 mm | - | 0 W/m² | - |
| 1777512448 | 2.78° C | 68% | 1014.5 hPa | 0 mm | - | 0 W/m² | - |
| 1777512148 | 4.44° C | 58% | 1014.4 hPa | 0 mm | - | 0 W/m² | - |
| 1777511848 | 5° C | 47% | 1014.5 hPa | 0 mm | - | 0 W/m² | - |
* Rain latest hour (hover to see other rain measurements)
** Current wind speed in m/s (hover to see current wind gust speed)